Time;durP1;ratioP1;P1;durP2;ratioP2;P2;SDS_P1;SDS_P2;PMS_P1;PMS_P2;Temp;Humidity;BMP_temperature;BMP_pressure;BME280_temperature;BME280_humidity;BME280_pressure;Samples;Min_cycle;Max_cycle;Signal;HPM_P1;HPM_P2
2021/01/08 00:01:00;;;;;;;1.16;0.40;;;;;;;2.34;94.12;98366.34;345089;115;1961983;-72
2021/01/08 00:02:05;;;;;;;1.34;0.42;;;;;;;2.31;94.38;98358.72;346955;113;1966856;-73
2021/01/08 00:03:11;;;;;;;0.93;0.41;;;;;;;2.36;94.34;98391.78;350942;113;1962996;-72
2021/01/08 00:04:16;;;;;;;0.56;0.40;;;;;;;2.39;94.24;98399.41;353969;113;1962006;-72
2021/01/08 00:05:21;;;;;;;0.60;0.40;;;;;;;2.33;94.28;98377.98;350512;113;1963983;-73
2021/01/08 00:06:27;;;;;;;0.88;0.50;;;;;;;2.42;94.34;98372.38;350639;113;1962040;-72
2021/01/08 00:07:34;;;;;;;1.36;0.50;;;;;;;2.33;94.02;98383.31;321672;115;2941079;-73
2021/01/08 00:08:41;;;;;;;0.68;0.39;;;;;;;2.37;94.11;98376.63;344054;114;1962031;-72
2021/01/08 00:09:47;;;;;;;0.99;0.51;;;;;;;2.33;93.94;98370.84;350848;113;1962020;-72
2021/01/08 00:10:53;;;;;;;1.02;0.39;;;;;;;2.36;94.23;98394.45;326297;113;2234780;-73
2021/01/08 00:11:59;;;;;;;0.94;0.46;;;;;;;2.42;94.31;98393.70;350674;115;1961939;-73
2021/01/08 00:13:04;;;;;;;1.29;0.63;;;;;;;2.40;94.12;98398.38;350191;115;1963957;-73
2021/01/08 00:14:10;;;;;;;0.91;0.51;;;;;;;2.30;94.05;98384.55;351566;113;1961929;-72
2021/01/08 00:15:16;;;;;;;0.97;0.40;;;;;;;2.32;94.21;98379.01;349154;113;1962057;-73
2021/01/08 00:16:35;;;;;;;1.20;0.62;;;;;;;2.35;94.19;98402.62;347266;115;1964042;-72
2021/01/08 00:17:40;;;;;;;1.62;0.59;;;;;;;2.38;94.22;98389.77;357688;113;1962952;-73
2021/01/08 00:18:47;;;;;;;1.20;0.62;;;;;;;2.34;94.12;98382.33;304308;111;2152121;-73
2021/01/08 00:19:53;;;;;;;0.61;0.51;;;;;;;2.37;93.97;98380.10;350077;115;1962001;-73
2021/01/08 00:20:58;;;;;;;1.01;0.48;;;;;;;2.34;93.99;98412.45;351540;115;1961911;-73
2021/01/08 00:22:04;;;;;;;0.53;0.32;;;;;;;2.33;94.12;98399.30;352343;115;1963001;-73
2021/01/08 00:23:10;;;;;;;0.67;0.48;;;;;;;2.37;94.11;98425.41;350994;115;1961956;-73
2021/01/08 00:24:15;;;;;;;1.26;0.50;;;;;;;2.39;94.28;98396.74;311223;115;2728333;-73
2021/01/08 00:25:21;;;;;;;1.52;0.65;;;;;;;2.34;94.11;98431.11;341697;115;1961910;-72
2021/01/08 00:26:28;;;;;;;0.98;0.44;;;;;;;2.43;94.01;98431.84;350612;115;1962033;-73
2021/01/08 00:27:34;;;;;;;0.72;0.42;;;;;;;2.47;94.04;98410.99;359445;113;1962019;-73
2021/01/08 00:28:42;;;;;;;0.83;0.47;;;;;;;2.43;93.96;98442.50;313361;113;2810950;-72
2021/01/08 00:29:48;;;;;;;1.02;0.53;;;;;;;2.42;94.00;98407.03;358911;113;1963946;-72
2021/01/08 00:30:55;;;;;;;0.53;0.40;;;;;;;2.45;94.18;98416.50;348831;113;1962076;-73
2021/01/08 00:32:01;;;;;;;0.50;0.36;;;;;;;2.44;93.94;98417.52;359849;113;1961940;-73
2021/01/08 00:33:06;;;;;;;0.59;0.40;;;;;;;2.45;94.02;98429.00;359489;111;1963938;-73
2021/01/08 00:34:16;;;;;;;0.64;0.48;;;;;;;2.40;93.86;98421.55;359420;113;1962027;-73
2021/01/08 00:35:21;;;;;;;1.16;0.54;;;;;;;2.35;94.09;98421.27;358677;113;1962048;-74
2021/01/08 00:36:28;;;;;;;1.07;0.39;;;;;;;2.36;94.17;98421.10;337228;113;2279962;-73
2021/01/08 00:37:34;;;;;;;0.78;0.40;;;;;;;2.39;94.10;98425.23;328491;113;1963022;-72
2021/01/08 00:38:39;;;;;;;1.19;0.44;;;;;;;2.38;93.83;98461.73;359870;113;1961986;-72
2021/01/08 00:39:45;;;;;;;1.87;0.62;;;;;;;2.30;93.83;98400.53;357225;113;1962021;-73
2021/01/08 00:40:52;;;;;;;0.86;0.56;;;;;;;2.37;94.10;98416.59;352910;112;1964977;-72
2021/01/08 00:41:58;;;;;;;1.05;0.42;;;;;;;2.33;94.08;98410.81;342975;112;1963032;-74
2021/01/08 00:43:04;;;;;;;1.21;0.55;;;;;;;2.35;94.17;98392.78;356140;114;1961937;-72
2021/01/08 00:44:10;;;;;;;0.96;0.58;;;;;;;2.34;94.11;98416.97;356803;113;1963953;-73
2021/01/08 00:45:15;;;;;;;1.85;0.50;;;;;;;2.33;94.02;98420.63;355793;114;1962009;-73
2021/01/08 00:46:31;;;;;;;1.02;0.46;;;;;;;2.30;94.05;98424.52;342769;114;1963774;-73
2021/01/08 00:47:37;;;;;;;0.99;0.66;;;;;;;2.29;93.71;98424.68;336446;107;1960800;-73
2021/01/08 00:48:42;;;;;;;0.40;0.40;;;;;;;2.31;94.06;98454.64;365305;107;1962940;-73
2021/01/08 00:49:47;;;;;;;0.57;0.32;;;;;;;2.27;93.77;98411.53;365523;109;1961995;-72
2021/01/08 00:51:02;;;;;;;0.74;0.40;;;;;;;2.27;93.73;98435.51;363568;109;1961977;-73
2021/01/08 00:52:07;;;;;;;1.74;0.55;;;;;;;2.18;93.84;98439.28;365830;109;1960886;-73
2021/01/08 00:53:13;;;;;;;1.43;0.60;;;;;;;2.19;93.97;98463.06;367214;109;1962002;-73
2021/01/08 00:54:19;;;;;;;0.72;0.49;;;;;;;2.20;93.76;98414.11;364120;109;1962162;-74
2021/01/08 00:55:26;;;;;;;0.89;0.50;;;;;;;2.28;93.64;98441.69;364590;109;1961992;-73
2021/01/08 00:56:35;;;;;;;1.51;0.63;;;;;;;2.30;93.62;98405.00;316908;109;2857954;-73
2021/01/08 00:57:42;;;;;;;0.87;0.36;;;;;;;2.33;93.70;98409.96;364036;109;1961924;-72
2021/01/08 00:58:48;;;;;;;1.94;0.80;;;;;;;2.28;93.75;98412.38;364699;109;1961930;-72
2021/01/08 00:59:54;;;;;;;1.22;0.50;;;;;;;2.27;93.85;98438.17;332311;109;2562936;-72
2021/01/08 01:00:59;;;;;;;0.72;0.59;;;;;;;2.27;93.64;98426.69;346870;111;1963979;-71
2021/01/08 01:02:05;;;;;;;1.46;0.62;;;;;;;2.24;93.89;98417.23;358322;111;1961946;-72
2021/01/08 01:03:10;;;;;;;0.79;0.45;;;;;;;2.28;93.77;98420.38;366082;109;1960953;-73
2021/01/08 01:04:16;;;;;;;0.76;0.60;;;;;;;2.31;93.80;98412.83;358491;111;1961931;-72
2021/01/08 01:05:22;;;;;;;0.71;0.43;;;;;;;2.32;93.71;98430.45;351042;113;1966040;-72
2021/01/08 01:06:30;;;;;;;1.23;0.64;;;;;;;2.28;93.65;98447.84;335095;113;2224991;-73
2021/01/08 01:07:36;;;;;;;0.65;0.50;;;;;;;2.30;93.52;98411.19;356343;111;1961991;-72
2021/01/08 01:08:42;;;;;;;1.28;0.54;;;;;;;2.30;93.36;98410.34;315452;113;2723902;-73
2021/01/08 01:09:48;;;;;;;2.23;0.59;;;;;;;2.29;93.67;98425.50;355121;112;1962020;-72
2021/01/08 01:10:54;;;;;;;1.11;0.53;;;;;;;2.37;93.82;98448.57;356324;112;1962011;-72
2021/01/08 01:11:59;;;;;;;1.12;0.82;;;;;;;2.27;93.55;98424.03;358137;111;1961889;-73
2021/01/08 01:13:04;;;;;;;2.46;0.67;;;;;;;2.28;93.32;98436.36;356024;113;1962017;-72
2021/01/08 01:14:10;;;;;;;1.10;0.59;;;;;;;2.31;93.35;98442.14;354384;111;1962010;-73
2021/01/08 01:15:17;;;;;;;0.93;0.57;;;;;;;2.23;93.41;98442.23;317765;113;2666953;-72
2021/01/08 01:16:24;;;;;;;0.65;0.40;;;;;;;2.17;93.36;98437.61;356362;111;1961950;-72
2021/01/08 01:17:31;;;;;;;1.57;0.97;;;;;;;2.16;93.31;98447.44;322325;109;2737959;-72
2021/01/08 01:18:36;;;;;;;1.72;0.63;;;;;;;2.22;93.43;98439.73;340759;111;1961974;-72
2021/01/08 01:19:44;;;;;;;0.79;0.43;;;;;;;2.17;93.47;98482.90;366618;109;1961946;-73
2021/01/08 01:20:51;;;;;;;1.22;0.69;;;;;;;2.22;93.45;98429.90;365466;109;1962670;-72
2021/01/08 01:21:56;;;;;;;0.84;0.49;;;;;;;2.24;93.54;98459.86;365219;109;1961921;-73
2021/01/08 01:23:03;;;;;;;1.39;0.68;;;;;;;2.23;93.24;98447.56;365322;109;1962796;-72
2021/01/08 01:24:09;;;;;;;1.52;0.64;;;;;;;2.30;93.34;98461.81;364844;109;1961912;-73
2021/01/08 01:25:14;;;;;;;0.72;0.45;;;;;;;2.31;93.31;98443.98;342789;109;2323906;-73
2021/01/08 01:26:20;;;;;;;0.72;0.55;;;;;;;2.30;93.19;98432.50;355915;109;1963977;-73
2021/01/08 01:27:25;;;;;;;1.15;0.62;;;;;;;2.26;93.25;98462.35;363825;109;1961994;-73
2021/01/08 01:28:35;;;;;;;1.37;0.68;;;;;;;2.26;93.36;98454.36;355969;111;1962011;-73
2021/01/08 01:29:40;;;;;;;1.55;0.61;;;;;;;2.25;93.17;98437.55;356856;113;1961988;-73
2021/01/08 01:30:46;;;;;;;1.82;0.58;;;;;;;2.27;93.55;98446.16;357046;113;1961910;-74
2021/01/08 01:31:52;;;;;;;2.14;0.79;;;;;;;2.33;93.39;98456.11;356516;111;1961959;-73
2021/01/08 01:33:01;;;;;;;0.79;0.59;;;;;;;2.34;93.32;98448.94;300411;113;2188042;-72
2021/01/08 01:34:07;;;;;;;1.22;0.69;;;;;;;2.29;93.23;98433.49;354725;111;1961986;-72
2021/01/08 01:35:12;;;;;;;1.38;0.71;;;;;;;2.31;93.47;98438.66;313058;113;2747994;-73
2021/01/08 01:36:18;;;;;;;0.91;0.56;;;;;;;2.25;93.39;98445.55;356817;111;1961922;-72
2021/01/08 01:37:24;;;;;;;1.01;0.67;;;;;;;2.35;93.46;98446.08;357112;113;1962013;-72
2021/01/08 01:38:29;;;;;;;1.08;0.67;;;;;;;2.30;93.38;98448.49;357347;111;1961989;-72
2021/01/08 01:39:35;;;;;;;1.81;1.11;;;;;;;2.34;93.47;98462.27;355689;111;1963047;-72
2021/01/08 01:40:40;;;;;;;0.83;0.50;;;;;;;2.33;93.50;98466.77;355403;111;1961960;-72
2021/01/08 01:41:47;;;;;;;0.87;0.54;;;;;;;2.24;92.78;98493.67;314270;111;2739916;-73
2021/01/08 01:42:52;;;;;;;1.29;0.60;;;;;;;2.28;92.84;98474.48;353963;111;1961959;-72
2021/01/08 01:43:58;;;;;;;1.18;0.50;;;;;;;2.29;92.87;98462.80;348959;113;1963919;-72
2021/01/08 01:45:05;;;;;;;1.17;0.56;;;;;;;2.28;92.93;98455.02;358177;111;1961992;-73
2021/01/08 01:46:20;;;;;;;0.95;0.69;;;;;;;2.31;93.04;98442.14;332016;114;1961956;-72
2021/01/08 01:47:28;;;;;;;1.27;0.50;;;;;;;2.23;92.92;98463.55;316023;115;1961963;-73
2021/01/08 01:48:34;;;;;;;1.23;0.61;;;;;;;2.29;93.33;98444.16;353241;113;1962012;-72
2021/01/08 01:49:41;;;;;;;1.34;0.79;;;;;;;2.19;93.00;98462.23;323278;114;1961980;-72
2021/01/08 01:50:47;;;;;;;0.74;0.53;;;;;;;2.28;92.93;98463.83;353518;112;1961986;-72
2021/01/08 01:51:55;;;;;;;1.04;0.64;;;;;;;2.16;92.34;98470.60;350275;115;1961991;-73
2021/01/08 01:53:01;;;;;;;1.56;0.69;;;;;;;2.30;92.74;98456.48;353938;111;1962036;-71
2021/01/08 01:54:08;;;;;;;1.64;0.58;;;;;;;2.35;92.91;98474.56;356016;111;1962032;-73
2021/01/08 01:55:15;;;;;;;0.98;0.57;;;;;;;2.38;92.81;98453.73;353877;112;1963014;-72
2021/01/08 01:56:20;;;;;;;0.67;0.50;;;;;;;2.28;92.36;98453.17;351562;113;1961914;-72
2021/01/08 01:57:25;;;;;;;0.61;0.50;;;;;;;2.32;92.41;98483.75;346489;115;1962992;-72
2021/01/08 01:58:31;;;;;;;0.69;0.56;;;;;;;2.32;92.27;98469.61;355202;112;1961994;-72
2021/01/08 01:59:36;;;;;;;0.88;0.65;;;;;;;2.31;92.37;98451.98;354680;112;1962938;-72
2021/01/08 02:00:43;;;;;;;1.19;0.52;;;;;;;2.31;92.37;98481.29;307117;112;2881000;-72
2021/01/08 02:01:49;;;;;;;0.92;0.57;;;;;;;2.30;92.16;98463.63;356741;111;1961920;-71
2021/01/08 02:03:10;;;;;;;1.36;0.76;;;;;;;2.22;91.89;98477.03;353888;112;1962952;-73
2021/01/08 02:04:18;;;;;;;1.21;0.60;;;;;;;2.22;91.93;98480.52;354544;111;1961940;-71
2021/01/08 02:05:24;;;;;;;0.96;0.62;;;;;;;2.32;92.72;98459.77;346477;113;1962038;-72
2021/01/08 02:06:34;;;;;;;2.21;0.66;;;;;;;2.24;92.23;98473.18;354040;113;1961932;-72
2021/01/08 02:07:55;;;;;;;0.57;0.50;;;;;;;2.28;92.30;98474.48;356834;114;1961962;-73
2021/01/08 02:09:08;;;;;;;1.15;0.71;;;;;;;2.25;92.05;98464.20;316384;111;2703972;-72
2021/01/08 02:10:15;;;;;;;1.32;0.63;;;;;;;2.29;92.62;98481.45;355340;111;1962008;-73
2021/01/08 02:11:27;;;;;;;0.76;0.49;;;;;;;2.28;92.39;98477.16;319943;111;2600962;-73
2021/01/08 02:12:33;;;;;;;;;;;;;;;2.20;91.71;98493.22;355975;111;1961952;-73
2021/01/08 02:13:43;;;;;;;0.93;0.56;;;;;;;2.34;92.09;98481.73;354917;112;1960919;-73
2021/01/08 02:14:50;;;;;;;1.29;0.79;;;;;;;2.40;92.26;98475.67;353872;113;1961941;-73
2021/01/08 02:15:57;;;;;;;3.16;0.87;;;;;;;2.40;92.42;98469.52;297918;114;2236960;-73
2021/01/08 02:17:03;;;;;;;0.99;0.69;;;;;;;2.40;92.37;98461.52;347705;114;1962051;-72
2021/01/08 02:18:09;;;;;;;2.37;0.79;;;;;;;2.33;92.22;98501.42;346570;114;1962021;-72
2021/01/08 02:19:21;;;;;;;1.21;0.60;;;;;;;2.30;91.98;98485.80;321736;114;2433962;-73
2021/01/08 02:20:27;;;;;;;1.63;0.68;;;;;;;2.33;92.31;98496.09;347090;114;1961958;-74
2021/01/08 02:21:45;;;;;;;1.06;0.54;;;;;;;2.36;91.95;98514.37;354551;111;1962912;-72
2021/01/08 02:22:54;;;;;;;1.44;0.73;;;;;;;2.39;92.01;98463.37;355102;111;1961939;-73
2021/01/08 02:24:26;;;;;;;1.63;0.70;;;;;;;2.33;91.63;98487.23;357176;111;1961967;-72
2021/01/08 02:25:34;;;;;;;1.08;0.62;;;;;;;2.38;91.85;98468.87;353131;113;1964025;-72
2021/01/08 02:26:43;;;;;;;0.98;0.59;;;;;;;2.33;91.52;98481.91;352618;112;1961956;-72
2021/01/08 02:28:07;;;;;;;1.19;0.58;;;;;;;2.36;92.37;98478.91;323852;112;1962985;-72
2021/01/08 02:29:13;;;;;;;1.23;0.48;;;;;;;2.35;92.24;98477.23;300645;112;2178548;-71
2021/01/08 02:30:20;;;;;;;1.26;0.59;;;;;;;2.30;91.69;98493.79;352847;112;1961960;-72
2021/01/08 02:31:25;;;;;;;1.29;0.50;;;;;;;2.24;91.31;98501.67;350835;112;1961981;-73
2021/01/08 02:32:31;;;;;;;1.45;0.64;;;;;;;2.19;91.13;98483.55;353726;112;1962935;-73
2021/01/08 02:33:37;;;;;;;1.58;0.71;;;;;;;2.26;91.48;98529.79;304395;112;2148217;-72
2021/01/08 02:34:43;;;;;;;1.57;0.49;;;;;;;2.36;91.23;98511.70;342238;112;1963852;-72
2021/01/08 02:35:50;;;;;;;1.96;0.60;;;;;;;2.34;91.36;98495.06;354557;111;1961991;-74
2021/01/08 02:36:56;;;;;;;1.79;0.68;;;;;;;2.29;90.74;98524.09;354656;111;1961957;-72
2021/01/08 02:38:02;;;;;;;1.08;0.71;;;;;;;2.30;91.14;98479.61;354444;111;1961974;-72
2021/01/08 02:39:10;;;;;;;0.98;0.51;;;;;;;2.30;90.83;98498.27;352904;111;1962015;-72
2021/01/08 02:40:18;;;;;;;0.99;0.65;;;;;;;2.35;90.60;98509.21;355836;111;1963949;-72
2021/01/08 02:41:25;;;;;;;0.91;0.57;;;;;;;2.52;90.84;98520.55;352623;112;1961959;-71
2021/01/08 02:42:33;;;;;;;0.89;0.61;;;;;;;2.49;90.56;98511.09;323332;112;1962933;-72
2021/01/08 02:43:39;;;;;;;1.34;0.65;;;;;;;2.51;89.74;98502.89;351479;112;1961898;-73
2021/01/08 02:44:45;;;;;;;0.68;0.49;;;;;;;2.48;89.47;98503.26;332609;111;2240024;-73
2021/01/08 02:45:52;;;;;;;2.74;0.80;;;;;;;2.56;90.45;98497.84;354257;111;1962004;-73
2021/01/08 02:46:57;;;;;;;1.26;0.70;;;;;;;2.58;89.86;98493.16;355568;111;1961959;-73
2021/01/08 02:48:04;;;;;;;1.96;0.62;;;;;;;2.58;89.74;98501.97;356157;113;1962042;-71
2021/01/08 02:49:09;;;;;;;2.19;0.84;;;;;;;2.62;89.86;98507.79;295130;116;2188382;-74
2021/01/08 02:50:16;;;;;;;1.36;0.71;;;;;;;2.48;87.93;98516.59;345929;114;1963915;-72
2021/01/08 02:51:21;;;;;;;1.77;0.75;;;;;;;2.57;89.62;98515.50;346430;114;1962022;-73
2021/01/08 02:52:28;;;;;;;1.35;0.82;;;;;;;2.58;89.40;98503.82;349406;114;1965022;-73
2021/01/08 02:53:36;;;;;;;1.12;0.62;;;;;;;2.52;88.25;98501.90;303775;114;2105358;-72
2021/01/08 02:54:42;;;;;;;0.81;0.69;;;;;;;2.57;88.52;98526.17;356233;111;1962007;-72
2021/01/08 02:56:01;;;;;;;1.04;0.56;;;;;;;2.64;88.84;98500.41;311406;111;2794929;-72
2021/01/08 02:57:09;;;;;;;1.44;0.58;;;;;;;2.66;88.94;98537.56;356902;111;1961957;-72
2021/01/08 02:58:14;;;;;;;1.34;0.75;;;;;;;2.66;88.20;98525.05;356459;111;1962006;-72
2021/01/08 02:59:20;;;;;;;1.31;0.64;;;;;;;2.61;88.39;98500.78;356158;111;1961970;-75
2021/01/08 03:00:31;;;;;;;1.47;0.73;;;;;;;2.63;88.35;98533.42;332790;111;2388831;-72
2021/01/08 03:01:38;;;;;;;1.28;0.69;;;;;;;2.53;86.99;98532.86;309440;111;2813994;-73
2021/01/08 03:02:44;;;;;;;0.81;0.64;;;;;;;2.56;88.21;98497.84;356098;111;1962868;-72
2021/01/08 03:03:49;;;;;;;1.99;0.71;;;;;;;2.64;88.93;98501.23;354659;113;1961941;-72
2021/01/08 03:04:56;;;;;;;0.97;0.53;;;;;;;2.66;88.78;98526.91;353764;111;1962036;-73
2021/01/08 03:06:02;;;;;;;2.31;1.27;;;;;;;2.71;88.89;98524.52;321013;114;1973198;-72
2021/01/08 03:07:08;;;;;;;1.69;0.77;;;;;;;2.64;88.99;98538.56;354122;111;1962019;-72
2021/01/08 03:08:14;;;;;;;1.40;0.67;;;;;;;2.72;88.32;98497.65;354631;111;1961976;-72
2021/01/08 03:09:20;;;;;;;1.37;0.72;;;;;;;2.69;89.27;98527.35;356435;111;1962047;-72
2021/01/08 03:10:27;;;;;;;1.96;0.74;;;;;;;2.69;88.69;98511.35;356606;111;1962057;-73
2021/01/08 03:11:32;;;;;;;2.07;0.78;;;;;;;2.64;87.27;98516.41;355616;113;1962015;-73
2021/01/08 03:12:38;;;;;;;0.95;0.67;;;;;;;2.63;87.56;98533.42;354858;111;1961997;-72
2021/01/08 03:13:44;;;;;;;1.41;0.79;;;;;;;2.70;87.22;98512.17;356091;111;1963008;-73
2021/01/08 03:14:50;;;;;;;1.88;0.88;;;;;;;2.68;87.78;98554.22;313551;111;2728044;-73
2021/01/08 03:15:55;;;;;;;1.94;0.99;;;;;;;2.81;88.04;98543.74;355458;112;1961053;-72
2021/01/08 03:17:01;;;;;;;2.29;0.86;;;;;;;2.78;87.17;98518.27;355400;111;1962011;-73
2021/01/08 03:18:06;;;;;;;1.96;1.02;;;;;;;2.72;86.94;98515.49;356346;111;1963015;-72
2021/01/08 03:19:11;;;;;;;1.69;0.87;;;;;;;2.78;87.13;98522.75;354813;113;1961986;-72
2021/01/08 03:20:19;;;;;;;1.33;0.81;;;;;;;2.63;87.81;98557.42;314007;113;2900913;-72
2021/01/08 03:21:24;;;;;;;2.29;0.90;;;;;;;2.63;87.73;98539.58;339706;111;1962044;-74
2021/01/08 03:22:30;;;;;;;1.62;0.83;;;;;;;2.65;87.92;98515.41;356691;114;1961899;-72
2021/01/08 03:23:35;;;;;;;1.27;0.66;;;;;;;2.64;88.03;98541.22;356364;111;1962977;-71
2021/01/08 03:24:40;;;;;;;1.42;0.87;;;;;;;2.77;89.15;98545.92;356180;113;1960923;-72
2021/01/08 03:25:45;;;;;;;1.11;0.73;;;;;;;2.71;87.99;98557.33;357316;114;1961815;-72
2021/01/08 03:26:51;;;;;;;1.58;0.92;;;;;;;2.83;89.04;98528.36;350958;113;1960852;-72
2021/01/08 03:27:57;;;;;;;1.42;0.87;;;;;;;2.74;86.81;98559.63;312354;111;2795946;-73
2021/01/08 03:29:03;;;;;;;1.50;0.93;;;;;;;2.78;87.41;98544.94;330267;111;1960847;-72
2021/01/08 03:30:09;;;;;;;2.61;1.24;;;;;;;2.63;86.22;98560.09;352725;113;1960932;-72
2021/01/08 03:31:16;;;;;;;1.74;0.87;;;;;;;2.72;87.60;98544.82;353530;112;1961011;-72
2021/01/08 03:32:21;;;;;;;1.74;0.83;;;;;;;2.77;87.68;98574.44;311181;112;2762769;-72
2021/01/08 03:33:27;;;;;;;2.00;0.71;;;;;;;2.79;87.26;98546.58;346290;111;1960876;-72
2021/01/08 03:34:32;;;;;;;1.37;0.81;;;;;;;2.74;85.96;98543.63;355433;112;1962016;-72
2021/01/08 03:35:38;;;;;;;2.29;1.02;;;;;;;2.74;85.87;98578.30;354762;112;1960997;-72
2021/01/08 03:36:45;;;;;;;1.11;0.68;;;;;;;2.82;86.74;98572.88;353921;112;1962007;-73
2021/01/08 03:37:51;;;;;;;2.42;0.83;;;;;;;2.82;87.69;98562.20;320556;112;2603928;-72
2021/01/08 03:38:56;;;;;;;1.84;0.83;;;;;;;2.85;87.31;98553.02;339053;112;1962008;-74
2021/01/08 03:40:01;;;;;;;2.06;0.89;;;;;;;2.77;86.28;98577.92;347044;114;1961957;-73
2021/01/08 03:41:07;;;;;;;1.43;0.89;;;;;;;2.84;87.16;98562.86;354908;111;1961982;-72
2021/01/08 03:42:12;;;;;;;1.61;0.90;;;;;;;2.85;86.21;98591.17;354378;112;1964006;-73
2021/01/08 03:43:17;;;;;;;1.69;0.90;;;;;;;2.74;85.77;98548.14;357450;111;1961893;-73
2021/01/08 03:44:23;;;;;;;2.31;1.09;;;;;;;2.78;85.64;98546.75;357277;111;1963035;-72
2021/01/08 03:45:29;;;;;;;1.41;0.71;;;;;;;2.84;87.39;98565.52;307022;112;2846980;-72
2021/01/08 03:46:36;;;;;;;2.40;1.29;;;;;;;2.81;86.23;98551.73;354621;111;1961914;-72
2021/01/08 03:47:42;;;;;;;2.08;1.46;;;;;;;2.82;86.32;98537.38;353407;114;1961986;-72
2021/01/08 03:48:48;;;;;;;2.90;1.00;;;;;;;2.83;85.58;98563.03;356170;112;1961977;-72
2021/01/08 03:49:54;;;;;;;1.81;0.84;;;;;;;2.80;85.66;98561.55;306342;112;2837029;-73
2021/01/08 03:50:59;;;;;;;2.36;1.07;;;;;;;2.77;85.27;98590.44;331027;113;1965000;-72
2021/01/08 03:52:06;;;;;;;2.67;1.21;;;;;;;2.79;85.66;98580.42;352608;112;1962027;-74
2021/01/08 03:53:12;;;;;;;2.01;0.90;;;;;;;2.80;87.54;98584.73;352876;112;1962010;-74
2021/01/08 03:54:18;;;;;;;2.76;1.08;;;;;;;2.76;86.19;98570.95;308925;112;2832986;-73
2021/01/08 03:55:23;;;;;;;2.28;1.01;;;;;;;2.84;87.40;98565.52;320914;116;1962933;-73
2021/01/08 03:56:30;;;;;;;1.78;0.93;;;;;;;2.89;87.10;98564.98;353856;113;1963055;-73
2021/01/08 03:57:35;;;;;;;3.00;1.23;;;;;;;2.93;85.50;98552.92;353735;112;1962037;-73
2021/01/08 03:58:41;;;;;;;1.73;0.90;;;;;;;2.95;85.92;98577.58;352488;114;1961927;-73
2021/01/08 03:59:47;;;;;;;2.32;1.06;;;;;;;2.94;86.88;98567.08;294045;112;2231695;-72
2021/01/08 04:00:53;;;;;;;2.42;1.08;;;;;;;2.93;85.89;98568.10;354488;112;1963944;-72
2021/01/08 04:01:59;;;;;;;1.88;1.23;;;;;;;2.95;87.65;98569.57;354423;112;1962934;-72
2021/01/08 04:03:04;;;;;;;3.49;1.25;;;;;;;2.96;86.36;98571.22;351324;113;1962406;-72
2021/01/08 04:04:10;;;;;;;2.60;1.23;;;;;;;2.98;86.55;98563.05;351353;114;1963009;-72
2021/01/08 04:05:16;;;;;;;1.79;1.04;;;;;;;3.03;85.57;98598.00;309223;112;2772970;-72
2021/01/08 04:06:22;;;;;;;2.47;1.31;;;;;;;3.05;85.83;98572.80;344538;114;1961958;-72
2021/01/08 04:07:27;;;;;;;1.93;1.11;;;;;;;3.01;84.42;98584.83;350647;114;1965349;-72
2021/01/08 04:08:32;;;;;;;1.91;0.85;;;;;;;3.09;85.23;98567.91;352738;114;1961873;-72
2021/01/08 04:09:38;;;;;;;2.74;1.21;;;;;;;3.08;84.11;98587.61;357743;112;1961902;-71
2021/01/08 04:10:45;;;;;;;1.91;1.10;;;;;;;3.14;83.02;98600.20;321861;113;1963011;-72
2021/01/08 04:11:51;;;;;;;3.38;1.39;;;;;;;3.12;80.35;98582.72;341025;112;1963869;-72
2021/01/08 04:12:56;;;;;;;2.92;1.55;;;;;;;3.09;79.75;98570.58;353468;114;1963984;-72
2021/01/08 04:14:01;;;;;;;3.70;1.99;;;;;;;3.12;78.34;98599.55;344308;114;1961992;-73
2021/01/08 04:15:07;;;;;;;1.52;0.96;;;;;;;3.05;80.82;98590.65;353835;113;1961982;-73
2021/01/08 04:16:14;;;;;;;2.74;1.33;;;;;;;3.15;80.49;98571.67;354820;111;1961968;-72
2021/01/08 04:17:20;;;;;;;2.63;1.30;;;;;;;3.16;77.99;98576.84;331804;111;1963995;-72
2021/01/08 04:18:25;;;;;;;3.79;1.58;;;;;;;3.23;78.87;98599.11;356784;111;1960999;-72
2021/01/08 04:19:30;;;;;;;2.73;1.37;;;;;;;3.19;78.62;98588.98;355090;111;1963980;-73
2021/01/08 04:20:37;;;;;;;3.27;1.51;;;;;;;3.08;76.83;98633.79;357103;111;1961932;-74
2021/01/08 04:21:50;;;;;;;3.23;1.59;;;;;;;3.05;79.95;98583.47;306286;114;2815944;-72
2021/01/08 04:22:51;;;;;;;3.69;1.54;;;;;;;3.17;78.98;98601.67;352789;113;1964005;-72
2021/01/08 04:23:56;;;;;;;3.59;2.18;;;;;;;3.10;78.62;98588.26;356393;112;1963983;-72
2021/01/08 04:25:03;;;;;;;2.52;1.45;;;;;;;3.14;79.88;98597.53;352557;113;1961994;-73
2021/01/08 04:26:09;;;;;;;4.92;1.56;;;;;;;3.15;79.26;98601.88;348251;112;1965003;-72
2021/01/08 04:27:14;;;;;;;2.92;1.37;;;;;;;3.22;77.34;98613.45;354274;113;1962055;-72
2021/01/08 04:28:19;;;;;;;2.91;1.48;;;;;;;3.21;78.85;98609.13;351224;112;1963949;-72
2021/01/08 04:29:24;;;;;;;4.40;1.44;;;;;;;3.19;77.80;98632.50;349992;114;1962012;-72
2021/01/08 04:30:30;;;;;;;2.84;1.47;;;;;;;3.27;79.25;98586.21;349186;114;1961906;-73
2021/01/08 04:31:36;;;;;;;2.66;1.49;;;;;;;3.29;79.46;98626.90;351433;112;1961950;-72
2021/01/08 04:32:42;;;;;;;3.84;1.76;;;;;;;3.22;78.62;98605.44;344238;111;1962004;-74
2021/01/08 04:33:48;;;;;;;3.27;1.96;;;;;;;3.28;77.09;98611.88;352597;114;1961997;-72
2021/01/08 04:34:54;;;;;;;3.84;1.96;;;;;;;3.25;79.13;98615.74;354631;111;1962028;-73
2021/01/08 04:36:00;;;;;;;4.99;2.72;;;;;;;3.23;79.78;98609.78;352236;113;1961894;-72
2021/01/08 04:37:06;;;;;;;3.71;2.27;;;;;;;3.28;79.29;98594.05;336172;114;2950936;-73
2021/01/08 04:38:11;;;;;;;3.38;1.84;;;;;;;3.29;79.17;98610.88;328774;111;1961951;-73
2021/01/08 04:39:17;;;;;;;3.27;1.89;;;;;;;3.29;78.92;98593.02;352031;111;1961994;-72
2021/01/08 04:40:23;;;;;;;3.37;1.75;;;;;;;3.29;78.21;98611.70;355400;112;1962039;-72
2021/01/08 04:41:30;;;;;;;3.26;1.44;;;;;;;3.19;77.77;98629.83;356698;113;1961906;-73
2021/01/08 04:42:36;;;;;;;4.36;2.09;;;;;;;3.14;77.20;98639.41;318824;111;1965943;-74
2021/01/08 04:43:41;;;;;;;3.54;1.81;;;;;;;3.06;77.61;98613.64;354262;111;1963324;-73
2021/01/08 04:44:47;;;;;;;2.77;1.50;;;;;;;3.17;79.73;98604.34;350313;112;1961973;-72
2021/01/08 04:45:57;;;;;;;5.47;2.07;;;;;;;3.20;79.48;98614.64;349643;114;1962012;-73
2021/01/08 04:47:04;;;;;;;2.72;1.53;;;;;;;3.17;78.51;98636.36;347963;113;1961995;-73
2021/01/08 04:48:13;;;;;;;3.33;1.75;;;;;;;3.31;79.29;98611.53;298406;114;2137018;-73
2021/01/08 04:49:20;;;;;;;4.74;2.31;;;;;;;3.32;79.33;98620.36;308035;114;2770064;-72
2021/01/08 04:50:27;;;;;;;3.84;1.71;;;;;;;3.25;79.21;98613.08;349317;113;1961874;-73
2021/01/08 04:51:38;;;;;;;5.07;2.33;;;;;;;3.29;78.07;98624.23;345426;115;1964024;-72
2021/01/08 04:52:44;;;;;;;4.29;2.99;;;;;;;3.30;78.53;98625.88;297940;115;2231938;-72
2021/01/08 04:53:50;;;;;;;3.97;1.88;;;;;;;3.18;76.89;98641.53;349236;113;1968850;-72
2021/01/08 04:54:56;;;;;;;3.72;1.83;;;;;;;3.20;77.88;98636.84;349058;113;1961954;-73
2021/01/08 04:56:06;;;;;;;3.78;2.04;;;;;;;3.22;77.50;98623.30;349731;113;1965009;-73
2021/01/08 04:57:13;;;;;;;4.73;1.92;;;;;;;3.22;77.29;98639.31;348535;113;1961971;-72
2021/01/08 04:58:21;;;;;;;4.02;1.88;;;;;;;3.25;79.39;98634.42;349198;115;1964009;-71
2021/01/08 04:59:27;;;;;;;5.17;2.24;;;;;;;3.34;78.98;98629.84;345948;113;1963012;-72
2021/01/08 05:00:35;;;;;;;4.80;1.83;;;;;;;3.43;78.48;98646.58;338459;108;1962007;-73
2021/01/08 05:01:42;;;;;;;4.18;1.98;;;;;;;3.33;77.28;98635.35;338033;108;2486039;-72
2021/01/08 05:02:51;;;;;;;5.06;2.35;;;;;;;3.20;77.48;98639.52;365241;110;1962965;-72
2021/01/08 05:03:57;;;;;;;4.44;2.09;;;;;;;3.35;78.94;98627.99;364430;108;1964005;-73
2021/01/08 05:05:02;;;;;;;4.31;2.07;;;;;;;3.34;78.91;98627.17;303617;108;2215638;-73
2021/01/08 05:06:08;;;;;;;3.41;1.93;;;;;;;3.31;79.08;98632.88;356659;113;1962915;-73
2021/01/08 05:07:14;;;;;;;5.20;2.27;;;;;;;3.40;77.77;98633.61;354766;112;1962025;-72
2021/01/08 05:08:19;;;;;;;3.23;1.66;;;;;;;3.44;78.17;98649.08;352143;113;1962947;-72
2021/01/08 05:09:25;;;;;;;6.26;2.75;;;;;;;3.46;77.76;98657.70;355570;111;1961905;-72
2021/01/08 05:10:31;;;;;;;5.31;2.80;;;;;;;3.34;77.46;98640.52;319499;111;2617892;-72